Time;durP1;ratioP1;P1;durP2;ratioP2;P2;SDS_P1;SDS_P2;PMS_P1;PMS_P2;Temp;Humidity;BMP_temperature;BMP_pressure;BME280_temperature;BME280_humidity;BME280_pressure;Samples;Min_cycle;Max_cycle;Signal;HPM_P1;HPM_P2
2023/07/02 00:01:38;;;;;;;3.10;2.00;;;;;;;;;;5048256;28;20697;-78
2023/07/02 00:04:05;;;;;;;2.43;2.23;;;;;;;;;;5030277;28;20193;-77
2023/07/02 00:06:32;;;;;;;3.13;2.17;;;;;;;;;;5045491;28;20282;-77
2023/07/02 00:08:58;;;;;;;2.27;1.90;;;;;;;;;;5043996;28;20216;-78
2023/07/02 00:11:24;;;;;;;3.47;2.10;;;;;;;;;;5047796;28;20202;-78
2023/07/02 00:13:51;;;;;;;3.40;2.00;;;;;;;;;;5051456;28;20166;-78
2023/07/02 00:16:17;;;;;;;2.10;1.90;;;;;;;;;;5045524;28;20341;-78
2023/07/02 00:18:43;;;;;;;2.40;2.20;;;;;;;;;;5052905;28;20174;-77
2023/07/02 00:21:13;;;;;;;2.10;1.90;;;;;;;;;;5052267;28;20273;-79
2023/07/02 00:23:39;;;;;;;2.60;2.03;;;;;;;;;;5051347;28;20185;-77
2023/07/02 00:26:05;;;;;;;2.80;1.83;;;;;;;;;;5049883;28;20198;-77
2023/07/02 00:28:32;;;;;;;2.23;2.00;;;;;;;;;;5049911;28;20634;-78
2023/07/02 00:30:58;;;;;;;2.47;2.17;;;;;;;;;;5050759;28;20759;-77
2023/07/02 00:33:24;;;;;;;2.00;1.80;;;;;;;;;;5015430;28;20185;-78
2023/07/02 00:35:50;;;;;;;3.00;2.10;;;;;;;;;;5045559;28;20248;-78
2023/07/02 00:38:16;;;;;;;2.67;2.00;;;;;;;;;;5050550;28;20173;-78
2023/07/02 00:40:43;;;;;;;3.87;2.03;;;;;;;;;;5012468;28;20251;-78
2023/07/02 00:43:12;;;;;;;2.80;2.03;;;;;;;;;;5032683;28;20200;-79
2023/07/02 00:45:39;;;;;;;2.00;1.80;;;;;;;;;;5052005;28;20212;-78
2023/07/02 00:48:08;;;;;;;2.10;1.90;;;;;;;;;;5050631;28;20201;-78
2023/07/02 00:50:36;;;;;;;3.17;2.03;;;;;;;;;;5051151;28;20210;-78
2023/07/02 00:53:02;;;;;;;2.37;2.03;;;;;;;;;;5039779;28;20597;-78
2023/07/02 00:55:28;;;;;;;3.40;2.17;;;;;;;;;;5051890;28;20209;-78
2023/07/02 00:57:56;;;;;;;2.90;2.10;;;;;;;;;;5032169;28;20660;-79
2023/07/02 01:00:23;;;;;;;2.03;1.73;;;;;;;;;;5023528;28;20218;-78
2023/07/02 01:02:58;;;;;;;2.37;1.80;;;;;;;;;;5047041;28;20269;-78
2023/07/02 01:05:37;;;;;;;3.43;2.10;;;;;;;;;;5034378;28;20585;-78
2023/07/02 01:08:06;;;;;;;6.13;2.43;;;;;;;;;;5029912;28;20201;-78
2023/07/02 01:10:34;;;;;;;3.20;2.20;;;;;;;;;;5013615;28;20594;-78
2023/07/02 01:13:07;;;;;;;2.90;2.33;;;;;;;;;;5039398;28;20523;-78
2023/07/02 01:15:33;;;;;;;2.63;2.10;;;;;;;;;;5046292;28;20206;-78
2023/07/02 01:17:59;;;;;;;2.67;2.10;;;;;;;;;;5028047;28;20552;-78
2023/07/02 01:20:26;;;;;;;2.70;2.33;;;;;;;;;;5032608;28;20557;-78
2023/07/02 01:22:54;;;;;;;4.77;2.37;;;;;;;;;;5049611;28;20181;-78
2023/07/02 01:25:24;;;;;;;4.00;2.20;;;;;;;;;;5049249;28;20201;-79
2023/07/02 01:27:53;;;;;;;3.47;2.37;;;;;;;;;;5011980;28;20356;-78
2023/07/02 01:30:19;;;;;;;3.17;2.30;;;;;;;;;;5025197;28;20221;-78
2023/07/02 01:32:46;;;;;;;2.70;2.20;;;;;;;;;;5031776;28;20245;-78
2023/07/02 01:35:12;;;;;;;3.67;2.43;;;;;;;;;;5024290;28;20195;-78
2023/07/02 01:37:38;;;;;;;3.07;2.47;;;;;;;;;;5045474;28;20622;-78
2023/07/02 01:40:06;;;;;;;3.20;2.30;;;;;;;;;;5028887;28;20327;-78
2023/07/02 01:42:33;;;;;;;3.50;2.53;;;;;;;;;;5047493;28;20272;-78
2023/07/02 01:44:59;;;;;;;3.70;2.37;;;;;;;;;;5032098;28;20205;-79
2023/07/02 01:47:25;;;;;;;3.23;2.60;;;;;;;;;;5033387;28;20228;-79
2023/07/02 01:49:51;;;;;;;2.10;1.90;;;;;;;;;;5016396;28;20758;-78
2023/07/02 01:52:17;;;;;;;3.97;2.43;;;;;;;;;;5050605;28;20224;-78
2023/07/02 01:54:44;;;;;;;3.27;2.20;;;;;;;;;;5050544;28;20193;-79
2023/07/02 01:57:10;;;;;;;2.83;1.87;;;;;;;;;;5047059;28;20213;-78
2023/07/02 01:59:41;;;;;;;3.60;2.23;;;;;;;;;;5027275;28;20245;-79
2023/07/02 02:02:07;;;;;;;2.70;2.43;;;;;;;;;;5049055;28;20614;-78
2023/07/02 02:04:36;;;;;;;3.17;2.00;;;;;;;;;;5031960;28;20279;-78
2023/07/02 02:07:03;;;;;;;2.23;2.03;;;;;;;;;;5028464;28;20331;-78
2023/07/02 02:09:32;;;;;;;3.13;2.17;;;;;;;;;;5047489;28;20192;-78
2023/07/02 02:11:58;;;;;;;6.97;2.43;;;;;;;;;;5013903;28;20193;-78
2023/07/02 02:14:24;;;;;;;5.23;2.50;;;;;;;;;;5028067;28;20194;-79
2023/07/02 02:16:51;;;;;;;3.23;2.37;;;;;;;;;;5015731;28;20200;-78
2023/07/02 02:19:17;;;;;;;4.63;2.47;;;;;;;;;;5048486;28;20775;-78
2023/07/02 02:21:43;;;;;;;3.00;2.10;;;;;;;;;;5049008;28;20177;-78
2023/07/02 02:24:10;;;;;;;3.07;2.13;;;;;;;;;;5030876;28;20182;-78
2023/07/02 02:26:36;;;;;;;3.67;2.40;;;;;;;;;;5049177;28;20201;-79
2023/07/02 02:29:03;;;;;;;2.83;2.33;;;;;;;;;;5046915;28;20292;-78
2023/07/02 02:31:30;;;;;;;3.20;2.20;;;;;;;;;;5048035;28;20847;-78
2023/07/02 02:33:57;;;;;;;2.57;2.23;;;;;;;;;;5032155;28;20272;-79
2023/07/02 02:36:23;;;;;;;3.03;2.30;;;;;;;;;;5032653;28;20190;-79
2023/07/02 02:38:49;;;;;;;3.83;2.70;;;;;;;;;;5032334;28;20496;-78
2023/07/02 02:41:16;;;;;;;7.47;3.80;;;;;;;;;;5032840;28;20217;-78
2023/07/02 02:43:47;;;;;;;7.40;4.57;;;;;;;;;;5032110;28;20184;-78
2023/07/02 02:46:23;;;;;;;7.53;4.50;;;;;;;;;;5031861;28;20277;-78
2023/07/02 02:48:50;;;;;;;10.27;4.90;;;;;;;;;;5012972;28;20269;-78
2023/07/02 02:51:16;;;;;;;5.40;3.97;;;;;;;;;;5012839;28;20531;-79
2023/07/02 02:53:42;;;;;;;7.30;4.40;;;;;;;;;;5013055;28;20654;-78
2023/07/02 02:56:08;;;;;;;7.53;4.33;;;;;;;;;;5035966;28;20201;-78
2023/07/02 02:58:34;;;;;;;7.50;4.03;;;;;;;;;;5064910;28;20189;-78
2023/07/02 03:01:01;;;;;;;8.27;4.37;;;;;;;;;;5032752;28;20197;-78
2023/07/02 03:03:27;;;;;;;6.57;3.83;;;;;;;;;;5031778;28;20821;-78
2023/07/02 03:05:53;;;;;;;6.87;4.43;;;;;;;;;;5050367;28;20876;-78
2023/07/02 03:08:19;;;;;;;7.77;4.33;;;;;;;;;;5030973;28;20403;-79
2023/07/02 03:10:45;;;;;;;6.43;4.30;;;;;;;;;;5031140;28;20747;-79
2023/07/02 03:13:12;;;;;;;5.70;3.93;;;;;;;;;;5038358;28;20269;-78
2023/07/02 03:15:38;;;;;;;5.70;4.30;;;;;;;;;;5024945;28;20228;-78
2023/07/02 03:18:04;;;;;;;6.60;4.83;;;;;;;;;;5041765;28;20608;-78
2023/07/02 03:20:30;;;;;;;10.80;5.23;;;;;;;;;;5048796;28;20190;-78
2023/07/02 03:22:56;;;;;;;6.53;5.27;;;;;;;;;;5050240;28;20174;-79
2023/07/02 03:25:22;;;;;;;6.50;4.80;;;;;;;;;;5049967;28;20218;-78
2023/07/02 03:27:49;;;;;;;5.83;4.47;;;;;;;;;;5049643;28;20186;-78
2023/07/02 03:30:15;;;;;;;6.17;4.80;;;;;;;;;;5031578;28;20212;-78
2023/07/02 03:32:41;;;;;;;7.33;5.03;;;;;;;;;;5040028;28;20219;-79
2023/07/02 03:35:07;;;;;;;7.83;5.13;;;;;;;;;;5049399;28;20343;-78
2023/07/02 03:37:33;;;;;;;7.67;5.47;;;;;;;;;;5048308;28;20243;-78
2023/07/02 03:39:59;;;;;;;8.70;5.43;;;;;;;;;;5049295;28;20186;-78
2023/07/02 03:42:25;;;;;;;9.80;5.27;;;;;;;;;;5015174;28;20186;-78
2023/07/02 03:44:52;;;;;;;7.53;5.60;;;;;;;;;;5050594;28;20567;-78
2023/07/02 03:47:19;;;;;;;11.20;5.53;;;;;;;;;;5017879;28;20186;-78
2023/07/02 03:49:46;;;;;;;9.30;5.63;;;;;;;;;;5053624;28;20695;-78
2023/07/02 03:52:12;;;;;;;8.57;5.67;;;;;;;;;;5052740;28;20652;-78
2023/07/02 03:54:38;;;;;;;8.43;5.97;;;;;;;;;;5052906;28;20258;-78
2023/07/02 03:57:04;;;;;;;8.90;5.90;;;;;;;;;;5051949;28;20584;-78
2023/07/02 03:59:30;;;;;;;10.33;5.90;;;;;;;;;;5018771;28;20182;-78
2023/07/02 04:01:56;;;;;;;10.37;6.00;;;;;;;;;;5021476;28;20182;-78
2023/07/02 04:04:23;;;;;;;11.10;6.03;;;;;;;;;;5036481;28;20166;-78
2023/07/02 04:06:49;;;;;;;11.00;6.47;;;;;;;;;;5043700;28;20271;-78
2023/07/02 04:09:15;;;;;;;8.80;5.60;;;;;;;;;;5034912;28;20232;-78
2023/07/02 04:11:41;;;;;;;10.10;6.47;;;;;;;;;;5053188;28;20190;-78
2023/07/02 04:14:07;;;;;;;8.43;6.03;;;;;;;;;;5036585;28;20720;-78
2023/07/02 04:16:34;;;;;;;9.50;6.30;;;;;;;;;;5033590;28;20237;-78
2023/07/02 04:19:00;;;;;;;8.70;5.67;;;;;;;;;;5043436;28;20660;-78
2023/07/02 04:21:26;;;;;;;8.07;6.20;;;;;;;;;;5053167;28;20178;-78
2023/07/02 04:23:52;;;;;;;8.27;6.30;;;;;;;;;;5053097;28;20190;-78
2023/07/02 04:26:18;;;;;;;10.67;6.43;;;;;;;;;;5034885;28;20205;-79
2023/07/02 04:28:45;;;;;;;9.97;6.70;;;;;;;;;;5052349;28;20553;-78
2023/07/02 04:31:11;;;;;;;9.77;6.23;;;;;;;;;;5053087;28;20221;-78
2023/07/02 04:33:37;;;;;;;9.27;6.30;;;;;;;;;;5053141;28;20178;-78
2023/07/02 04:36:04;;;;;;;9.10;5.93;;;;;;;;;;5052651;28;20193;-77
2023/07/02 04:38:30;;;;;;;7.93;5.73;;;;;;;;;;5034218;28;20186;-79
2023/07/02 04:41:04;;;;;;;9.63;5.97;;;;;;;;;;5053087;28;20484;-79
2023/07/02 04:43:32;;;;;;;8.70;6.33;;;;;;;;;;5035619;28;20208;-78
2023/07/02 04:45:59;;;;;;;8.70;5.53;;;;;;;;;;5051717;28;20205;-78
2023/07/02 04:48:25;;;;;;;6.93;5.90;;;;;;;;;;5052928;28;20197;-78
2023/07/02 04:50:51;;;;;;;11.40;6.40;;;;;;;;;;5052771;28;20212;-78
2023/07/02 04:53:17;;;;;;;7.63;5.53;;;;;;;;;;5051970;28;20181;-78
2023/07/02 04:55:43;;;;;;;7.93;5.47;;;;;;;;;;5051142;28;20241;-78
2023/07/02 04:58:09;;;;;;;8.80;5.63;;;;;;;;;;5052313;28;20202;-78
2023/07/02 05:00:35;;;;;;;9.50;5.87;;;;;;;;;;5052388;28;20201;-78
2023/07/02 05:03:02;;;;;;;8.67;5.57;;;;;;;;;;5023061;28;20189;-78
2023/07/02 05:05:28;;;;;;;7.87;5.40;;;;;;;;;;5034315;28;20223;-78
2023/07/02 05:07:55;;;;;;;8.63;5.43;;;;;;;;;;5052713;28;20165;-78
2023/07/02 05:10:21;;;;;;;9.50;5.90;;;;;;;;;;5051408;28;20190;-78
2023/07/02 05:12:47;;;;;;;7.27;5.37;;;;;;;;;;5051953;28;20221;-79
2023/07/02 05:15:13;;;;;;;7.03;5.20;;;;;;;;;;5051766;28;20206;-77
2023/07/02 05:17:40;;;;;;;8.03;5.83;;;;;;;;;;5053676;28;20185;-76
2023/07/02 05:20:06;;;;;;;7.87;5.70;;;;;;;;;;5052328;28;20193;-78
2023/07/02 05:22:32;;;;;;;7.73;5.60;;;;;;;;;;5052184;28;20243;-81
2023/07/02 05:24:59;;;;;;;7.77;6.03;;;;;;;;;;5018737;28;20186;-82
2023/07/02 05:27:25;;;;;;;9.53;6.50;;;;;;;;;;5035238;28;20185;-78
2023/07/02 05:29:51;;;;;;;10.30;5.87;;;;;;;;;;5054508;28;20641;-79
2023/07/02 05:32:17;;;;;;;9.53;6.43;;;;;;;;;;5019439;28;20177;-79
2023/07/02 05:34:43;;;;;;;11.73;6.10;;;;;;;;;;5049897;28;20185;-79
2023/07/02 05:37:10;;;;;;;9.70;6.43;;;;;;;;;;5048667;28;20547;-79
2023/07/02 05:39:36;;;;;;;11.10;6.50;;;;;;;;;;5018428;28;20181;-79
2023/07/02 05:42:02;;;;;;;8.50;6.70;;;;;;;;;;5034248;28;20186;-79
2023/07/02 05:44:28;;;;;;;9.73;6.80;;;;;;;;;;5035597;28;20588;-79
2023/07/02 05:46:54;;;;;;;10.80;7.10;;;;;;;;;;5049909;28;20186;-79
2023/07/02 05:49:20;;;;;;;12.57;7.55;;;;;;;;;;5051468;28;20450;-79
2023/07/02 05:51:46;;;;;;;11.30;7.30;;;;;;;;;;5027086;28;20340;-79
2023/07/02 05:54:12;;;;;;;9.27;7.07;;;;;;;;;;5017075;28;20189;-79
2023/07/02 05:56:39;;;;;;;11.63;7.90;;;;;;;;;;5041398;28;20210;-79
2023/07/02 05:59:05;;;;;;;13.67;7.93;;;;;;;;;;5052968;28;20551;-80
2023/07/02 06:01:31;;;;;;;12.40;7.90;;;;;;;;;;5031882;28;20303;-78
2023/07/02 06:03:57;;;;;;;8.90;7.23;;;;;;;;;;5052187;28;20268;-78
2023/07/02 06:06:24;;;;;;;11.97;7.47;;;;;;;;;;5017475;28;20215;-79
2023/07/02 06:08:50;;;;;;;10.53;7.63;;;;;;;;;;5050391;28;20661;-79
2023/07/02 06:11:16;;;;;;;12.63;7.50;;;;;;;;;;5033086;28;20617;-78
2023/07/02 06:13:43;;;;;;;11.67;7.30;;;;;;;;;;5051905;28;20190;-79
2023/07/02 06:16:09;;;;;;;9.90;7.33;;;;;;;;;;5026370;28;20289;-79
2023/07/02 06:18:35;;;;;;;12.13;7.63;;;;;;;;;;5027352;28;20190;-78
2023/07/02 06:21:01;;;;;;;11.43;7.50;;;;;;;;;;5045563;28;20213;-78
2023/07/02 06:23:27;;;;;;;11.87;7.70;;;;;;;;;;5032282;28;20218;-78
2023/07/02 06:25:58;;;;;;;10.40;7.50;;;;;;;;;;5039439;28;20217;-77
2023/07/02 06:28:25;;;;;;;10.50;7.50;;;;;;;;;;5052491;28;20185;-78
2023/07/02 06:30:52;;;;;;;10.50;7.37;;;;;;;;;;5049770;28;20316;-79
2023/07/02 06:33:18;;;;;;;10.97;7.30;;;;;;;;;;5053979;28;20178;-78
2023/07/02 06:35:44;;;;;;;12.13;7.77;;;;;;;;;;5053881;28;20704;-78
2023/07/02 06:38:10;;;;;;;10.60;7.57;;;;;;;;;;5035789;28;20543;-78
2023/07/02 06:40:36;;;;;;;11.57;7.63;;;;;;;;;;5031810;28;20188;-77
2023/07/02 06:43:02;;;;;;;11.83;8.17;;;;;;;;;;5047978;28;20188;-76
2023/07/02 06:45:28;;;;;;;11.03;7.50;;;;;;;;;;5050386;28;20202;-76
2023/07/02 06:47:55;;;;;;;11.37;8.13;;;;;;;;;;5046913;28;20200;-76
2023/07/02 06:50:22;;;;;;;10.07;7.63;;;;;;;;;;5048713;28;20294;-77
2023/07/02 06:52:48;;;;;;;12.83;8.53;;;;;;;;;;5035953;28;20186;-77
2023/07/02 06:55:15;;;;;;;10.87;8.30;;;;;;;;;;5050293;28;20220;-76
2023/07/02 06:57:45;;;;;;;12.23;8.30;;;;;;;;;;5043625;28;20196;-77
2023/07/02 07:00:12;;;;;;;11.37;8.27;;;;;;;;;;5049893;28;20178;-77
2023/07/02 07:02:38;;;;;;;11.67;9.30;;;;;;;;;;5050576;28;20213;-76
2023/07/02 07:05:04;;;;;;;12.37;8.53;;;;;;;;;;5049570;28;20205;-76
2023/07/02 07:07:30;;;;;;;14.23;8.77;;;;;;;;;;5014136;28;20191;-76
2023/07/02 07:09:56;;;;;;;13.17;8.40;;;;;;;;;;5045888;28;20212;-76
2023/07/02 07:12:22;;;;;;;13.03;9.00;;;;;;;;;;5052406;28;20181;-79
2023/07/02 07:14:49;;;;;;;15.33;9.83;;;;;;;;;;5016061;28;20182;-76
2023/07/02 07:17:15;;;;;;;14.47;9.60;;;;;;;;;;5049017;28;20189;-79
2023/07/02 07:19:41;;;;;;;13.07;8.63;;;;;;;;;;5053392;28;20685;-79
2023/07/02 07:22:07;;;;;;;13.17;9.03;;;;;;;;;;5054474;28;20796;-78
2023/07/02 07:24:33;;;;;;;16.37;9.90;;;;;;;;;;5003936;28;20270;-81
2023/07/02 07:26:59;;;;;;;14.33;9.80;;;;;;;;;;5051106;28;20605;-79
2023/07/02 07:29:25;;;;;;;13.90;9.60;;;;;;;;;;5035215;28;20688;-77
2023/07/02 07:31:52;;;;;;;16.20;9.80;;;;;;;;;;5051233;28;20697;-77
2023/07/02 07:34:18;;;;;;;13.27;9.20;;;;;;;;;;5044785;28;20253;-76
2023/07/02 07:36:44;;;;;;;11.47;8.60;;;;;;;;;;5055498;28;20572;-77
2023/07/02 07:39:10;;;;;;;12.97;9.17;;;;;;;;;;5054746;28;20188;-76
2023/07/02 07:41:36;;;;;;;12.13;8.63;;;;;;;;;;5055229;28;20185;-76
2023/07/02 07:44:02;;;;;;;11.37;8.77;;;;;;;;;;5037359;28;20228;-76
2023/07/02 07:46:28;;;;;;;12.60;8.60;;;;;;;;;;5054808;28;20194;-77
2023/07/02 07:48:55;;;;;;;13.77;9.20;;;;;;;;;;5001430;28;20210;-76
2023/07/02 07:51:21;;;;;;;11.23;8.80;;;;;;;;;;5049829;28;20232;-77
2023/07/02 07:53:47;;;;;;;13.60;8.87;;;;;;;;;;5055648;28;20672;-77
2023/07/02 07:56:13;;;;;;;13.77;8.57;;;;;;;;;;5049732;28;20215;-77
2023/07/02 07:58:39;;;;;;;14.63;8.93;;;;;;;;;;5070889;28;20186;-77
2023/07/02 08:01:05;;;;;;;11.20;8.40;;;;;;;;;;5058086;28;20192;-76
2023/07/02 08:03:31;;;;;;;10.83;8.00;;;;;;;;;;5045845;28;20185;-77
2023/07/02 08:05:57;;;;;;;11.70;9.20;;;;;;;;;;5055066;28;20293;-77
2023/07/02 08:08:23;;;;;;;16.13;10.23;;;;;;;;;;5033332;28;20189;-77
2023/07/02 08:10:50;;;;;;;13.43;9.50;;;;;;;;;;5036725;28;20205;-76
2023/07/02 08:13:17;;;;;;;14.20;9.87;;;;;;;;;;5054438;28;20174;-75
2023/07/02 08:15:43;;;;;;;14.10;9.40;;;;;;;;;;5035832;28;20619;-76
2023/07/02 08:18:11;;;;;;;17.10;10.13;;;;;;;;;;5052549;28;20595;-76
2023/07/02 08:20:37;;;;;;;14.13;9.80;;;;;;;;;;5050310;28;20182;-76
2023/07/02 08:23:04;;;;;;;14.70;10.00;;;;;;;;;;5053694;28;20170;-75
2023/07/02 08:25:30;;;;;;;15.63;10.70;;;;;;;;;;5053110;28;20583;-76
2023/07/02 08:27:58;;;;;;;13.33;10.13;;;;;;;;;;5044446;28;20235;-76
2023/07/02 08:30:24;;;;;;;13.50;9.90;;;;;;;;;;5053722;28;20228;-76
2023/07/02 08:32:50;;;;;;;14.97;10.00;;;;;;;;;;5053832;28;20181;-77
2023/07/02 08:35:16;;;;;;;14.43;10.27;;;;;;;;;;5053479;28;20205;-77
2023/07/02 08:37:42;;;;;;;14.77;10.30;;;;;;;;;;5054313;28;21053;-76
2023/07/02 08:40:16;;;;;;;15.00;10.67;;;;;;;;;;5035384;28;20276;-76
2023/07/02 08:42:43;;;;;;;15.60;11.43;;;;;;;;;;5033991;28;20199;-74
2023/07/02 08:45:10;;;;;;;15.27;10.80;;;;;;;;;;5052703;28;20212;-74
2023/07/02 08:47:36;;;;;;;15.57;11.33;;;;;;;;;;5052536;28;20193;-74
2023/07/02 08:50:04;;;;;;;15.10;11.20;;;;;;;;;;5053105;28;20209;-77
2023/07/02 08:52:31;;;;;;;15.97;11.67;;;;;;;;;;5053786;28;20261;-75
2023/07/02 08:54:57;;;;;;;16.47;12.00;;;;;;;;;;5052520;28;20265;-74
2023/07/02 08:57:23;;;;;;;17.07;11.80;;;;;;;;;;5042156;28;20178;-74
2023/07/02 08:59:51;;;;;;;17.67;11.90;;;;;;;;;;5050822;28;20225;-75
2023/07/02 09:02:17;;;;;;;16.70;11.93;;;;;;;;;;5050980;28;20622;-74
2023/07/02 09:04:43;;;;;;;16.23;11.13;;;;;;;;;;5055689;28;20610;-74
2023/07/02 09:07:10;;;;;;;16.93;11.27;;;;;;;;;;5070697;28;20664;-74
2023/07/02 09:09:46;;;;;;;18.63;12.20;;;;;;;;;;5070654;28;20633;-75
2023/07/02 09:12:26;;;;;;;19.00;12.23;;;;;;;;;;5033411;28;20269;-74
2023/07/02 09:15:00;;;;;;;16.23;11.97;;;;;;;;;;5050552;28;20190;-74
2023/07/02 09:17:30;;;;;;;16.27;11.27;;;;;;;;;;5052839;28;20232;-74
2023/07/02 09:19:57;;;;;;;17.03;11.07;;;;;;;;;;5052373;28;20215;-74
2023/07/02 09:22:24;;;;;;;15.93;11.90;;;;;;;;;;5052491;28;20185;-74
2023/07/02 09:24:54;;;;;;;16.97;11.70;;;;;;;;;;5052262;28;20220;-74
2023/07/02 09:27:21;;;;;;;16.27;11.80;;;;;;;;;;5034720;28;20602;-74
2023/07/02 09:29:53;;;;;;;17.77;12.23;;;;;;;;;;5051496;28;20231;-74
2023/07/02 09:32:26;;;;;;;16.77;12.77;;;;;;;;;;5052054;28;20181;-74
2023/07/02 09:34:54;;;;;;;17.43;12.70;;;;;;;;;;5052856;28;20170;-74
2023/07/02 09:37:21;;;;;;;26.17;12.43;;;;;;;;;;5052594;28;20181;-74
2023/07/02 09:39:49;;;;;;;17.57;12.57;;;;;;;;;;5055258;28;20210;-74
2023/07/02 09:42:16;;;;;;;17.17;11.37;;;;;;;;;;5071590;28;20261;-74
2023/07/02 09:44:43;;;;;;;14.23;11.00;;;;;;;;;;5069589;28;20200;-74
2023/07/02 09:47:09;;;;;;;17.40;11.97;;;;;;;;;;5051074;28;20277;-74
2023/07/02 09:49:36;;;;;;;16.47;11.50;;;;;;;;;;5051690;28;20555;-74
2023/07/02 09:52:03;;;;;;;16.13;12.37;;;;;;;;;;5052279;28;20190;-74
2023/07/02 09:54:30;;;;;;;17.70;12.23;;;;;;;;;;5051880;28;20730;-75
2023/07/02 09:56:57;;;;;;;16.00;11.97;;;;;;;;;;5032045;28;20332;-75
2023/07/02 09:59:24;;;;;;;15.10;11.77;;;;;;;;;;5032521;28;20175;-74
2023/07/02 10:01:50;;;;;;;17.50;12.37;;;;;;;;;;5050105;28;20660;-74
2023/07/02 10:04:18;;;;;;;18.00;12.03;;;;;;;;;;5051502;28;20186;-74
2023/07/02 10:06:45;;;;;;;16.60;12.20;;;;;;;;;;5033281;28;20205;-74
2023/07/02 10:09:11;;;;;;;19.80;13.63;;;;;;;;;;5050199;28;20236;-74
2023/07/02 10:11:37;;;;;;;16.47;13.03;;;;;;;;;;5051058;28;20213;-75
2023/07/02 10:14:03;;;;;;;17.90;12.37;;;;;;;;;;5051554;28;20179;-75
2023/07/02 10:16:31;;;;;;;18.33;11.93;;;;;;;;;;5050949;28;20202;-74
2023/07/02 10:19:13;;;;;;;15.30;11.83;;;;;;;;;;5050959;28;20178;-74
2023/07/02 10:21:39;;;;;;;16.80;13.17;;;;;;;;;;5050568;28;20595;-75
2023/07/02 10:24:15;;;;;;;18.90;13.90;;;;;;;;;;5048136;28;20186;-74
2023/07/02 10:27:00;;;;;;;21.23;14.10;;;;;;;;;;5051558;28;20201;-75
2023/07/02 10:29:27;;;;;;;19.80;14.47;;;;;;;;;;5050577;28;20185;-74
2023/07/02 10:31:57;;;;;;;19.60;13.97;;;;;;;;;;5051341;28;20217;-76
2023/07/02 10:34:32;;;;;;;19.83;14.43;;;;;;;;;;5051245;28;20177;-74
2023/07/02 10:37:00;;;;;;;18.23;13.03;;;;;;;;;;5051343;28;20524;-74
2023/07/02 10:39:26;;;;;;;17.30;12.97;;;;;;;;;;5046259;28;20204;-75
2023/07/02 10:41:52;;;;;;;17.63;13.13;;;;;;;;;;5046349;28;20182;-74
2023/07/02 10:44:19;;;;;;;17.90;14.00;;;;;;;;;;5051268;28;20652;-74
2023/07/02 10:46:46;;;;;;;20.77;13.93;;;;;;;;;;5066757;28;20619;-74
2023/07/02 10:49:12;;;;;;;22.53;15.63;;;;;;;;;;5057735;28;20235;-74
2023/07/02 10:51:39;;;;;;;19.33;14.83;;;;;;;;;;5050725;28;20325;-74
2023/07/02 10:54:05;;;;;;;18.60;14.07;;;;;;;;;;5050505;28;20178;-74
2023/07/02 10:56:33;;;;;;;19.07;13.90;;;;;;;;;;5016389;28;20597;-77
2023/07/02 10:58:59;;;;;;;20.27;14.80;;;;;;;;;;5046349;28;20186;-74
2023/07/02 11:01:29;;;;;;;25.47;15.30;;;;;;;;;;5034368;28;20183;-75
2023/07/02 11:03:56;;;;;;;17.53;13.83;;;;;;;;;;5047864;28;20210;-75
2023/07/02 11:06:22;;;;;;;18.13;13.77;;;;;;;;;;5050902;28;20201;-74
2023/07/02 11:08:48;;;;;;;20.10;14.17;;;;;;;;;;5050318;28;20642;-75
2023/07/02 11:11:15;;;;;;;22.17;15.23;;;;;;;;;;5050336;28;20206;-74
2023/07/02 11:13:46;;;;;;;20.23;14.90;;;;;;;;;;5050691;28;20175;-74
2023/07/02 11:16:20;;;;;;;18.80;14.50;;;;;;;;;;5038325;28;20678;-75
2023/07/02 11:18:46;;;;;;;18.90;14.27;;;;;;;;;;5050415;28;20197;-74
2023/07/02 11:21:12;;;;;;;21.33;15.07;;;;;;;;;;5049501;28;20184;-74
2023/07/02 11:23:38;;;;;;;18.37;13.73;;;;;;;;;;5050417;28;20530;-74
2023/07/02 11:26:04;;;;;;;19.03;13.93;;;;;;;;;;5049853;28;20205;-74
2023/07/02 11:28:31;;;;;;;16.30;12.20;;;;;;;;;;5048946;28;20722;-76
2023/07/02 11:30:58;;;;;;;16.97;13.70;;;;;;;;;;5050490;28;20218;-76
2023/07/02 11:33:37;;;;;;;18.70;12.80;;;;;;;;;;5050474;28;20202;-76
2023/07/02 11:36:03;;;;;;;20.13;14.80;;;;;;;;;;5032315;28;20240;-74
2023/07/02 11:38:30;;;;;;;18.70;14.00;;;;;;;;;;5046224;28;20239;-74
2023/07/02 11:40:56;;;;;;;19.97;14.60;;;;;;;;;;5049402;28;20178;-73
2023/07/02 11:43:22;;;;;;;20.03;14.60;;;;;;;;;;5050520;28;20212;-74
2023/07/02 11:45:48;;;;;;;19.77;14.00;;;;;;;;;;5053772;28;20228;-74
2023/07/02 11:48:14;;;;;;;26.63;14.70;;;;;;;;;;5070527;28;20586;-73
2023/07/02 11:50:40;;;;;;;19.50;14.17;;;;;;;;;;5055513;28;20208;-74
2023/07/02 11:53:06;;;;;;;16.80;13.67;;;;;;;;;;5023243;28;20360;-76
2023/07/02 11:55:32;;;;;;;16.40;13.47;;;;;;;;;;5037627;28;20209;-76
2023/07/02 11:57:58;;;;;;;19.40;13.50;;;;;;;;;;5050419;28;20178;-75
2023/07/02 12:00:25;;;;;;;17.37;13.93;;;;;;;;;;5049001;28;20226;-74
2023/07/02 12:02:51;;;;;;;19.43;14.73;;;;;;;;;;5049499;28;20548;-75
2023/07/02 12:05:18;;;;;;;23.20;15.30;;;;;;;;;;5048718;28;20263;-73
2023/07/02 12:07:44;;;;;;;20.07;15.63;;;;;;;;;;5041961;28;20272;-74
2023/07/02 12:10:10;;;;;;;21.83;15.73;;;;;;;;;;5048877;28;20767;-74
2023/07/02 12:12:36;;;;;;;21.60;14.67;;;;;;;;;;5056687;28;20184;-80
2023/07/02 12:15:02;;;;;;;19.77;14.50;;;;;;;;;;5058192;28;20317;-79
2023/07/02 12:17:28;;;;;;;19.10;14.07;;;;;;;;;;5041324;28;20182;-80
2023/07/02 12:19:55;;;;;;;18.63;14.33;;;;;;;;;;5037035;28;20185;-82
2023/07/02 12:22:22;;;;;;;18.77;13.37;;;;;;;;;;5019931;28;20660;-82
2023/07/02 12:24:50;;;;;;;19.27;13.60;;;;;;;;;;5019299;28;20174;-81
2023/07/02 12:27:16;;;;;;;16.90;13.47;;;;;;;;;;5037013;28;20557;-82
2023/07/02 12:29:43;;;;;;;17.43;13.20;;;;;;;;;;5046181;28;20209;-82
2023/07/02 12:32:10;;;;;;;17.00;13.50;;;;;;;;;;5023022;28;20182;-84
2023/07/02 12:34:36;;;;;;;18.47;13.97;;;;;;;;;;5036127;28;20178;-82
2023/07/02 12:37:03;;;;;;;18.13;12.90;;;;;;;;;;5037904;28;20669;-83
2023/07/02 12:39:29;;;;;;;17.17;12.80;;;;;;;;;;5054120;28;20644;-84
2023/07/02 12:41:55;;;;;;;18.60;12.93;;;;;;;;;;5039457;28;20185;-82
2023/07/02 12:44:22;;;;;;;17.73;13.63;;;;;;;;;;5053877;28;20273;-79
2023/07/02 12:46:48;;;;;;;18.57;13.83;;;;;;;;;;5035617;28;20209;-79
2023/07/02 12:49:14;;;;;;;17.00;13.77;;;;;;;;;;5052226;28;20185;-77
2023/07/02 12:51:40;;;;;;;16.93;12.77;;;;;;;;;;5054740;28;20213;-76
2023/07/02 12:54:06;;;;;;;18.40;13.00;;;;;;;;;;5053539;28;20185;-77
2023/07/02 12:56:32;;;;;;;19.53;13.60;;;;;;;;;;5035471;28;20205;-77
2023/07/02 12:58:58;;;;;;;15.37;12.67;;;;;;;;;;5055672;28;20178;-81
2023/07/02 13:01:25;;;;;;;16.93;13.00;;;;;;;;;;5053666;28;20192;-77
2023/07/02 13:03:51;;;;;;;19.77;14.10;;;;;;;;;;5052299;28;20183;-82
2023/07/02 13:06:17;;;;;;;17.23;13.63;;;;;;;;;;5033832;28;20199;-74
2023/07/02 13:08:43;;;;;;;19.07;13.53;;;;;;;;;;5048365;28;20198;-74
2023/07/02 13:11:10;;;;;;;18.07;13.50;;;;;;;;;;5051952;28;20205;-74
2023/07/02 13:13:36;;;;;;;17.13;13.27;;;;;;;;;;5050255;28;20202;-74
2023/07/02 13:16:02;;;;;;;16.13;12.83;;;;;;;;;;5052029;28;20823;-80
2023/07/02 13:18:29;;;;;;;16.97;12.53;;;;;;;;;;5043584;28;20185;-78
2023/07/02 13:20:55;;;;;;;18.00;14.30;;;;;;;;;;5049774;28;20178;-74
2023/07/02 13:23:21;;;;;;;17.67;13.87;;;;;;;;;;5052378;28;20229;-79
2023/07/02 13:25:47;;;;;;;16.70;14.00;;;;;;;;;;5044814;28;20202;-79
2023/07/02 13:28:14;;;;;;;15.97;13.20;;;;;;;;;;5042722;28;20183;-78
2023/07/02 13:30:40;;;;;;;15.87;13.63;;;;;;;;;;5016871;28;20210;-79
2023/07/02 13:33:06;;;;;;;18.10;14.43;;;;;;;;;;5051141;28;20263;-79
2023/07/02 13:35:32;;;;;;;18.93;13.70;;;;;;;;;;5049717;28;20286;-79
2023/07/02 13:37:59;;;;;;;18.27;13.17;;;;;;;;;;5049686;28;20189;-79
2023/07/02 13:40:25;;;;;;;18.17;14.00;;;;;;;;;;5053107;28;20177;-79
2023/07/02 13:42:52;;;;;;;19.17;14.20;;;;;;;;;;5053433;28;20192;-81
2023/07/02 13:45:18;;;;;;;18.00;13.87;;;;;;;;;;5040485;28;20206;-77
2023/07/02 13:47:45;;;;;;;18.07;13.90;;;;;;;;;;5048290;28;20214;-79
2023/07/02 13:50:11;;;;;;;18.53;13.70;;;;;;;;;;5049658;28;20212;-80
2023/07/02 13:52:37;;;;;;;19.97;14.50;;;;;;;;;;5029954;28;20187;-80
2023/07/02 13:55:04;;;;;;;19.23;14.90;;;;;;;;;;5047855;28;20225;-82
2023/07/02 13:57:30;;;;;;;17.53;13.50;;;;;;;;;;5050767;28;20178;-79
2023/07/02 13:59:56;;;;;;;17.93;13.97;;;;;;;;;;5054965;28;20193;-83
2023/07/02 14:02:23;;;;;;;16.67;13.63;;;;;;;;;;5055958;28;20206;-82
2023/07/02 14:04:49;;;;;;;18.63;14.37;;;;;;;;;;5038244;28;20216;-82
2023/07/02 14:07:16;;;;;;;20.30;15.00;;;;;;;;;;5038484;28;20183;-81
2023/07/02 14:09:42;;;;;;;19.73;14.20;;;;;;;;;;5037582;28;20177;-81
2023/07/02 14:12:08;;;;;;;15.10;13.00;;;;;;;;;;5039913;28;20175;-81
2023/07/02 14:14:34;;;;;;;19.30;14.03;;;;;;;;;;5040595;28;20182;-81
2023/07/02 14:17:00;;;;;;;20.23;14.43;;;;;;;;;;5038440;28;20201;-82
2023/07/02 14:19:26;;;;;;;18.93;14.23;;;;;;;;;;5063299;28;20199;-82
2023/07/02 14:21:52;;;;;;;16.03;13.80;;;;;;;;;;5061982;28;20176;-82
2023/07/02 14:24:19;;;;;;;15.90;13.40;;;;;;;;;;5065743;28;20186;-83
2023/07/02 14:26:45;;;;;;;16.90;13.30;;;;;;;;;;5039405;28;20212;-82